| time (UTC) | temp F | wind direction | speed knots | gust knots | rain 1hr in | rain 24hr in | rain mn in | humidity % | barometer mb |
| 20260507095445 | 41 | 351 | 0.9 | 3.5 | 0.00 | 0.00 | 0.00 | 42 | 1020.1 |
| 20260507094946 | 41 | 351 | 1.7 | 6.1 | 0.00 | 0.00 | 0.00 | 42 | 1020.2 |
| 20260507094444 | 40 | 351 | 1.7 | 6.1 | 0.00 | 0.00 | 0.00 | 44 | 1020.1 |
| 20260507093944 | 40 | 351 | 0.9 | 2.6 | 0.00 | 0.00 | 0.00 | 43 | 1020.1 |
| 20260507093711 | 40 | 351 | 0.9 | 2.6 | 0.00 | 0.00 | 0.00 | 42 | 1020.2 |
| 20260507092946 | 40 | 351 | 0.9 | 2.6 | 0.00 | 0.00 | 0.00 | 42 | 1020.2 |
| 20260507092438 | 41 | 351 | 0.9 | 2.6 | 0.00 | 0.00 | 0.00 | 42 | 1020.3 |
| 20260507091933 | 41 | 351 | 1.7 | 4.3 | 0.00 | 0.00 | 0.00 | 41 | 1020.3 |
| 20260507091428 | 42 | 351 | 2.6 | 6.1 | 0.00 | 0.00 | 0.00 | 41 | 1020.3 |
| 20260507090921 | 41 | 349 | 1.7 | 6.1 | 0.00 | 0.00 | 0.00 | 42 | 1020.3 |
| 20260507090416 | 40 | 343 | 1.7 | 5.2 | 0.00 | 0.00 | 0.00 | 43 | 1020.2 |
| 20260507085909 | 40 | 343 | 1.7 | 5.2 | 0.00 | 0.00 | 0.00 | 44 | 1020.2 |
| 20260507085403 | 39 | 342 | 2.6 | 5.2 | 0.00 | 0.00 | 0.00 | 44 | 1020.2 |
| 20260507084857 | 40 | 342 | 3.5 | 6.1 | 0.00 | 0.00 | 0.00 | 43 | 1020.2 |
| 20260507084352 | 39 | 338 | 3.5 | 6.1 | 0.00 | 0.00 | 0.00 | 44 | 1020.2 |
| 20260507083845 | 39 | 331 | 1.7 | 5.2 | 0.00 | 0.00 | 0.00 | 44 | 1020.2 |
| 20260507083339 | 38 | 326 | 0.9 | 5.2 | 0.00 | 0.00 | 0.00 | 46 | 1020.2 |
| 20260507082833 | 37 | 324 | 1.7 | 3.5 | 0.00 | 0.00 | 0.00 | 46 | 1020.2 |
| 20260507082327 | 37 | 324 | 2.6 | 5.2 | 0.00 | 0.00 | 0.00 | 46 | 1020.5 |
| 20260507081821 | 37 | 324 | 3.5 | 7.0 | 0.00 | 0.00 | 0.00 | 46 | 1020.3 |
| 20260507081315 | 36 | 322 | 3.5 | 7.0 | 0.00 | 0.00 | 0.00 | 46 | 1020.2 |
| 20260507080809 | 36 | 312 | 3.5 | 6.1 | 0.00 | 0.00 | 0.00 | 45 | 1020.2 |
| 20260507080303 | 37 | 311 | 1.7 | 4.3 | 0.00 | 0.00 | 0.00 | 44 | 1020.2 |
| 20260507075757 | 38 | 311 | 0.9 | 3.5 | 0.00 | 0.00 | 0.00 | 44 | 1020.3 |
| 20260507075251 | 38 | 311 | 0.9 | 3.5 | 0.00 | 0.00 | 0.00 | 44 | 1020.2 |
| 20260507074746 | 38 | 311 | 0.9 | 3.5 | 0.00 | 0.00 | 0.00 | 44 | 1020.2 |
| 20260507074240 | 38 | 311 | 0.9 | 3.5 | 0.00 | 0.00 | 0.00 | 45 | 1020.3 |
| 20260507073740 | 39 | 311 | 0.9 | 3.5 | 0.00 | 0.00 | 0.00 | 44 | 1020.3 |
| 20260507073240 | 39 | 311 | 0.9 | 2.6 | 0.00 | 0.00 | 0.00 | 43 | 1020.3 |
| 20260507072738 | 40 | 311 | 0.0 | 1.7 | 0.00 | 0.00 | 0.00 | 43 | 1020.2 |
| 20260507072239 | 40 | 311 | 0.9 | 2.6 | 0.00 | 0.00 | 0.00 | 44 | 1020.1 |
| 20260507071738 | 39 | 311 | 0.9 | 2.6 | 0.00 | 0.00 | 0.00 | 43 | 1020.0 |
| 20260507071238 | 39 | 311 | 1.7 | 2.6 | 0.00 | 0.00 | 0.00 | 43 | 1019.9 |
| 20260507071007 | 39 | 311 | 1.7 | 2.6 | 0.00 | 0.00 | 0.00 | 42 | 1020.0 |
| 20260507070501 | 40 | 311 | 0.9 | 2.6 | 0.00 | 0.00 | 0.00 | 42 | 1019.9 |
| 20260507065736 | 40 | 311 | 0.0 | 1.7 | 0.00 | 0.00 | 0.00 | 42 | 1019.7 |
| 20260507065230 | 40 | 311 | 0.0 | 2.6 | 0.00 | 0.00 | 0.00 | 42 | 1019.7 |
| 20260507064724 | 40 | 311 | 0.9 | 2.6 | 0.00 | 0.00 | 0.00 | 41 | 1019.7 |
| 20260507064218 | 40 | 311 | 0.9 | 2.6 | 0.00 | 0.00 | 0.00 | 40 | 1019.7 |
| 20260507063712 | 41 | 311 | 1.7 | 4.3 | 0.00 | 0.00 | 0.00 | 39 | 1019.6 |
| 20260507063206 | 42 | 311 | 2.6 | 4.3 | 0.00 | 0.00 | 0.00 | 37 | 1019.5 |
| 20260507062700 | 45 | 310 | 1.7 | 4.3 | 0.00 | 0.00 | 0.00 | 35 | 1019.5 |
| 20260507062154 | 47 | 310 | 0.9 | 3.5 | 0.00 | 0.00 | 0.00 | 34 | 1019.4 |
| 20260507061647 | 49 | 310 | 0.0 | 1.7 | 0.00 | 0.00 | 0.00 | 34 | 1019.3 |
| 20260507061142 | 49 | 310 | 0.0 | 0.0 | 0.00 | 0.00 | 0.00 | 34 | 1019.4 |
| 20260507060636 | 47 | 310 | 0.0 | 0.0 | 0.00 | 0.00 | 0.00 | 36 | 1019.4 |
| 20260507060132 | 47 | 310 | 0.0 | 0.0 | 0.00 | 0.00 | 0.00 | 36 | 1019.4 |
| 20260507055624 | 46 | 310 | 0.0 | 1.7 | 0.00 | 0.00 | 0.00 | 36 | 1019.4 |
| 20260507055118 | 47 | 310 | 0.9 | 3.5 | 0.00 | 0.00 | 0.00 | 36 | 1019.3 |
| 20260507054612 | 47 | 310 | 0.9 | 3.5 | 0.00 | 0.00 | 0.00 | 36 | 1019.1 |
| 20260507054106 | 47 | 310 | 0.9 | 2.6 | 0.00 | 0.00 | 0.00 | 36 | 1019.1 |
| 20260507053601 | 47 | 310 | 0.9 | 2.6 | 0.00 | 0.00 | 0.00 | 36 | 1019.3 |
| 20260507053314 | 47 | 310 | 0.9 | 2.6 | 0.00 | 0.00 | 0.00 | 36 | 1019.3 |
| 20260507052549 | 47 | 310 | 0.9 | 3.5 | 0.00 | 0.00 | 0.00 | 36 | 1019.3 |
| 20260507052513 | 48 | 309 | 0.9 | 2.6 | 0.00 | 0.00 | 0.00 | 35 | 1019.1 |
| 20260507052133 | 47 | 310 | 0.9 | 3.5 | 0.00 | 0.00 | 0.00 | 36 | 1019.1 |
| 20260507051030 | 49 | 310 | 0.0 | 1.7 | 0.00 | 0.00 | 0.00 | 35 | 1019.1 |
| 20260507050523 | 49 | 310 | 0.0 | 1.7 | 0.00 | 0.00 | 0.00 | 34 | 1019.0 |
| 20260507050018 | 49 | 310 | 0.9 | 2.6 | 0.00 | 0.00 | 0.00 | 34 | 1019.0 |
| 20260507045512 | 50 | 310 | 1.7 | 3.5 | 0.00 | 0.00 | 0.00 | 34 | 1019.0 |
| 20260507045006 | 50 | 310 | 1.7 | 3.5 | 0.00 | 0.00 | 0.00 | 34 | 1018.9 |
| 20260507044500 | 50 | 309 | 1.7 | 3.5 | 0.00 | 0.00 | 0.00 | 34 | 1018.8 |
| 20260507043954 | 50 | 309 | 1.7 | 4.3 | 0.00 | 0.00 | 0.00 | 33 | 1018.7 |
| 20260507043448 | 50 | 309 | 2.6 | 6.1 | 0.00 | 0.00 | 0.00 | 33 | 1018.8 |
| 20260507042942 | 50 | 309 | 1.7 | 6.1 | 0.00 | 0.00 | 0.00 | 33 | 1018.7 |
| 20260507042436 | 51 | 305 | 0.9 | 3.5 | 0.00 | 0.00 | 0.00 | 33 | 1018.7 |
| 20260507041930 | 51 | 305 | 0.9 | 2.6 | 0.00 | 0.00 | 0.00 | 32 | 1018.7 |
| 20260507041424 | 52 | 305 | 0.0 | 2.6 | 0.00 | 0.00 | 0.00 | 32 | 1018.5 |
| 20260507040918 | 52 | 304 | 0.0 | 1.7 | 0.00 | 0.00 | 0.00 | 31 | 1018.4 |
| 20260507040412 | 52 | 304 | 0.9 | 2.6 | 0.00 | 0.00 | 0.00 | 31 | 1018.4 |
| 20260507035907 | 53 | 304 | 0.9 | 2.6 | 0.00 | 0.00 | 0.00 | 30 | 1018.4 |
| 20260507035621 | 54 | 304 | 0.9 | 4.3 | 0.00 | 0.00 | 0.00 | 30 | 1018.3 |
| 20260507034855 | 54 | 304 | 0.9 | 4.3 | 0.00 | 0.00 | 0.00 | 30 | 1018.2 |
| 20260507034610 | 54 | 304 | 0.0 | 1.7 | 0.00 | 0.00 | 0.00 | 30 | 1018.2 |
| 20260507033842 | 54 | 304 | 0.0 | 0.0 | 0.00 | 0.00 | 0.00 | 30 | 1018.1 |
| 20260507033336 | 54 | 304 | 0.0 | 0.9 | 0.00 | 0.00 | 0.00 | 29 | 1018.1 |
| 20260507032830 | 54 | 304 | 0.0 | 0.9 | 0.00 | 0.00 | 0.00 | 29 | 1017.9 |
| 20260507032326 | 54 | 304 | 0.0 | 0.9 | 0.00 | 0.00 | 0.00 | 29 | 1017.8 |
| 20260507031817 | 55 | 304 | 0.0 | 0.9 | 0.00 | 0.00 | 0.00 | 29 | 1017.7 |
| 20260507031313 | 56 | 304 | 0.0 | 2.6 | 0.00 | 0.00 | 0.00 | 28 | 1017.7 |
| 20260507030806 | 56 | 304 | 0.0 | 3.5 | 0.00 | 0.00 | 0.00 | 28 | 1017.6 |
| 20260507030300 | 56 | 304 | 0.9 | 2.6 | 0.00 | 0.00 | 0.00 | 28 | 1017.6 |
| 20260507030014 | 56 | 304 | 0.9 | 2.6 | 0.00 | 0.00 | 0.00 | 28 | 1017.3 |
| 20260507025248 | 57 | 304 | 0.0 | 1.7 | 0.00 | 0.00 | 0.00 | 28 | 1017.2 |
| 20260507024741 | 57 | 304 | 0.0 | 2.6 | 0.00 | 0.00 | 0.00 | 27 | 1017.1 |
| 20260507024236 | 58 | 304 | 0.0 | 4.3 | 0.00 | 0.00 | 0.00 | 27 | 1017.1 |
| 20260507023730 | 58 | 304 | 0.0 | 4.3 | 0.00 | 0.00 | 0.00 | 27 | 1017.1 |
| 20260507023224 | 59 | 303 | 0.9 | 3.5 | 0.00 | 0.00 | 0.00 | 27 | 1017.1 |
| 20260507022938 | 59 | 303 | 1.7 | 4.3 | 0.00 | 0.00 | 0.00 | 26 | 1017.0 |
| 20260507022212 | 60 | 303 | 2.6 | 8.7 | 0.00 | 0.00 | 0.00 | 26 | 1016.9 |
| 20260507021706 | 61 | 303 | 3.5 | 8.7 | 0.00 | 0.00 | 0.00 | 25 | 1016.9 |
| 20260507021200 | 61 | 314 | 3.5 | 7.8 | 0.00 | 0.00 | 0.00 | 25 | 1016.9 |
| 20260507020919 | 62 | 322 | 2.6 | 7.0 | 0.00 | 0.00 | 0.00 | 25 | 1016.9 |
| 20260507020148 | 63 | 317 | 1.7 | 7.0 | 0.00 | 0.00 | 0.00 | 24 | 1016.7 |
| 20260507015642 | 63 | 323 | 1.7 | 7.0 | 0.00 | 0.00 | 0.00 | 24 | 1016.6 |
| 20260507015136 | 63 | 331 | 2.6 | 8.7 | 0.00 | 0.00 | 0.00 | 24 | 1016.6 |
| 20260507014630 | 64 | 337 | 2.6 | 8.7 | 0.00 | 0.00 | 0.00 | 24 | 1016.6 |
| 20260507014123 | 64 | 332 | 3.5 | 8.7 | 0.00 | 0.00 | 0.00 | 24 | 1016.6 |
| 20260507013617 | 64 | 343 | 4.3 | 8.7 | 0.00 | 0.00 | 0.00 | 24 | 1016.5 |
| 20260507013111 | 64 | 338 | 4.3 | 7.8 | 0.00 | 0.00 | 0.00 | 23 | 1016.5 |
| 20260507012605 | 64 | 333 | 3.5 | 7.8 | 0.00 | 0.00 | 0.00 | 24 | 1016.4 |
| 20260507012100 | 64 | 280 | 4.3 | 9.6 | 0.00 | 0.00 | 0.00 | 24 | 1016.4 |
| 20260507011821 | 64 | 353 | 4.3 | 9.6 | 0.00 | 0.00 | 0.00 | 24 | 1016.4 |
| 20260507011049 | 64 | 4 | 5.2 | 9.6 | 0.00 | 0.00 | 0.00 | 24 | 1016.4 |
| 20260507010807 | 64 | 10 | 6.1 | 11.3 | 0.00 | 0.00 | 0.00 | 24 | 1016.4 |
| 20260507010255 | 65 | 341 | 4.3 | 11.3 | 0.00 | 0.00 | 0.00 | 24 | 1016.3 |
| 20260507005531 | 65 | 342 | 3.5 | 9.6 | 0.00 | 0.00 | 0.00 | 24 | 1016.3 |
| 20260507005025 | 64 | 345 | 3.5 | 9.6 | 0.00 | 0.00 | 0.00 | 24 | 1016.3 |
| 20260507004519 | 64 | 345 | 4.3 | 11.3 | 0.00 | 0.00 | 0.00 | 24 | 1016.3 |
| 20260507004013 | 64 | 302 | 4.3 | 11.3 | 0.00 | 0.00 | 0.00 | 24 | 1016.3 |
| 20260507003508 | 64 | 342 | 4.3 | 10.4 | 0.00 | 0.00 | 0.00 | 24 | 1016.3 |
| 20260507003221 | 64 | 350 | 3.5 | 8.7 | 0.00 | 0.00 | 0.00 | 24 | 1016.4 |
| 20260507002456 | 64 | 347 | 4.3 | 10.4 | 0.00 | 0.00 | 0.00 | 24 | 1016.3 |
| 20260507002431 | 64 | 347 | 6.1 | 10.4 | 0.00 | 0.00 | 0.00 | 24 | 1016.3 |
| 20260507001443 | 64 | 0 | 6.1 | 10.4 | 0.00 | 0.00 | 0.00 | 24 | 1016.3 |
| 20260507001203 | 65 | 347 | 4.3 | 10.4 | 0.00 | 0.00 | 0.00 | 24 | 1016.3 |
| 20260507000432 | 63 | 314 | 4.3 | 10.4 | 0.00 | 0.00 | 0.00 | 25 | 1016.1 |
| 20260506235925 | 63 | 344 | 3.5 | 10.4 | 0.00 | 0.00 | 0.00 | 24 | 1016.1 |
| 20260506235421 | 63 | 328 | 3.5 | 11.3 | 0.00 | 0.00 | 0.00 | 25 | 1016.1 |
| 20260506235132 | 62 | 332 | 5.2 | 11.3 | 0.00 | 0.00 | 0.00 | 25 | 1016.3 |
| 20260506234407 | 63 | 5 | 7.0 | 13.0 | 0.00 | 0.00 | 0.00 | 24 | 1016.3 |
| 20260506234124 | 63 | 344 | 6.1 | 13.0 | 0.00 | 0.00 | 0.00 | 24 | 1016.3 |
| 20260506233356 | 63 | 1 | 5.2 | 13.0 | 0.00 | 0.00 | 0.00 | 24 | 1016.3 |
| 20260506232849 | 64 | 44 | 5.2 | 13.0 | 0.00 | 0.00 | 0.00 | 23 | 1016.3 |
| 20260506232607 | 65 | 311 | 6.1 | 12.2 | 0.00 | 0.00 | 0.00 | 23 | 1016.3 |
| 20260506231838 | 65 | 349 | 7.0 | 13.0 | 0.00 | 0.00 | 0.00 | 24 | 1016.3 |
| 20260506231331 | 65 | 1 | 7.0 | 20.9 | 0.00 | 0.00 | 0.00 | 23 | 1016.3 |
| 20260506231047 | 64 | 7 | 6.1 | 20.9 | 0.00 | 0.00 | 0.00 | 23 | 1016.1 |
| 20260506230319 | 64 | 304 | 6.1 | 16.5 | 0.00 | 0.00 | 0.00 | 23 | 1016.3 |
| 20260506230040 | 65 | 313 | 7.8 | 16.5 | 0.00 | 0.00 | 0.00 | 23 | 1016.1 |
| 20260506225308 | 65 | 299 | 7.8 | 13.9 | 0.00 | 0.00 | 0.00 | 23 | 1016.0 |
| 20260506224802 | 64 | 295 | 7.8 | 15.6 | 0.00 | 0.00 | 0.00 | 23 | 1016.1 |
| 20260506224255 | 64 | 309 | 6.1 | 16.5 | 0.00 | 0.00 | 0.00 | 24 | 1016.0 |
| 20260506224011 | 65 | 346 | 5.2 | 16.5 | 0.00 | 0.00 | 0.00 | 23 | 1016.3 |
| 20260506223243 | 64 | 348 | 7.0 | 14.8 | 0.00 | 0.00 | 0.00 | 23 | 1016.3 |
| 20260506222739 | 64 | 30 | 7.8 | 14.8 | 0.00 | 0.00 | 0.00 | 24 | 1016.3 |
| 20260506222231 | 65 | 355 | 7.8 | 15.6 | 0.00 | 0.00 | 0.00 | 23 | 1016.4 |
| 20260506221726 | 65 | 333 | 7.0 | 15.6 | 0.00 | 0.00 | 0.00 | 24 | 1016.3 |
| 20260506221220 | 65 | 340 | 6.1 | 13.9 | 0.00 | 0.00 | 0.00 | 23 | 1016.3 |
| 20260506220713 | 64 | 37 | 7.8 | 14.8 | 0.00 | 0.00 | 0.00 | 23 | 1016.4 |
| 20260506220207 | 64 | 357 | 7.8 | 14.8 | 0.00 | 0.00 | 0.00 | 22 | 1016.5 |
| 20260506215701 | 64 | 14 | 7.0 | 14.8 | 0.00 | 0.00 | 0.00 | 22 | 1016.5 |
| 20260506215156 | 65 | 341 | 7.0 | 20.9 | 0.00 | 0.00 | 0.00 | 21 | 1016.4 |
| 20260506214649 | 65 | 312 | 7.0 | 20.9 | 0.00 | 0.00 | 0.00 | 21 | 1016.5 |
| 20260506214143 | 65 | 306 | 7.0 | 15.6 | 0.00 | 0.00 | 0.00 | 21 | 1016.5 |
| 20260506213637 | 64 | 311 | 7.8 | 15.6 | 0.00 | 0.00 | 0.00 | 24 | 1016.6 |
| 20260506213131 | 64 | 356 | 7.8 | 16.5 | 0.00 | 0.00 | 0.00 | 24 | 1016.5 |
| 20260506212626 | 64 | 284 | 7.8 | 16.5 | 0.00 | 0.00 | 0.00 | 23 | 1016.6 |
| 20260506212119 | 63 | 349 | 9.6 | 19.1 | 0.00 | 0.00 | 0.00 | 24 | 1016.6 |
| 20260506211615 | 64 | 345 | 9.6 | 19.1 | 0.00 | 0.00 | 0.00 | 22 | 1016.7 |
| 20260506211116 | 64 | 343 | 7.8 | 14.8 | 0.00 | 0.00 | 0.00 | 21 | 1016.7 |
| 20260506210616 | 63 | 339 | 9.6 | 19.1 | 0.00 | 0.00 | 0.00 | 22 | 1016.7 |
| 20260506210335 | 63 | 323 | 10.4 | 19.1 | 0.00 | 0.00 | 0.00 | 22 | 1016.9 |
| 20260506205615 | 63 | 347 | 9.6 | 19.1 | 0.00 | 0.00 | 0.00 | 23 | 1016.7 |
| 20260506205114 | 63 | 306 | 8.7 | 17.4 | 0.00 | 0.00 | 0.00 | 23 | 1016.6 |
| 20260506204616 | 63 | 347 | 7.8 | 19.1 | 0.00 | 0.00 | 0.00 | 25 | 1016.7 |
| 20260506204115 | 63 | 1 | 6.1 | 19.1 | 0.00 | 0.00 | 0.00 | 26 | 1016.7 |
| 20260506203614 | 63 | 300 | 7.0 | 13.9 | 0.00 | 0.00 | 0.00 | 26 | 1016.9 |
| 20260506203114 | 62 | 343 | 7.0 | 15.6 | 0.00 | 0.00 | 0.00 | 27 | 1016.9 |
| 20260506202615 | 62 | 336 | 7.0 | 15.6 | 0.00 | 0.00 | 0.00 | 28 | 1017.0 |
| 20260506202114 | 62 | 304 | 6.1 | 13.0 | 0.00 | 0.00 | 0.00 | 28 | 1016.9 |
| 20260506201618 | 62 | 355 | 7.0 | 20.0 | 0.00 | 0.00 | 0.00 | 28 | 1017.0 |
| 20260506201117 | 62 | 307 | 7.0 | 20.0 | 0.00 | 0.00 | 0.00 | 28 | 1016.9 |
| 20260506200621 | 62 | 311 | 6.1 | 13.0 | 0.00 | 0.00 | 0.00 | 29 | 1016.9 |
| 20260506200119 | 61 | 309 | 6.1 | 12.2 | 0.00 | 0.00 | 0.00 | 31 | 1016.9 |
| 20260506195843 | 61 | 345 | 7.8 | 4.3 | 0.00 | 0.00 | 0.00 | 30 | 1016.9 |
| 20260506194949 | 61 | 342 | 7.0 | 16.5 | 0.00 | 0.00 | 0.00 | 32 | 1016.9 |
| 20260506194450 | 60 | 357 | 6.1 | 13.9 | 0.00 | 0.00 | 0.00 | 32 | 1017.0 |
| 20260506193949 | 60 | 341 | 5.2 | 13.9 | 0.00 | 0.00 | 0.00 | 31 | 1017.1 |
| 20260506193449 | 61 | 308 | 6.1 | 13.0 | 0.00 | 0.00 | 0.00 | 32 | 1017.1 |
| 20260506192944 | 60 | 336 | 5.2 | 13.0 | 0.00 | 0.00 | 0.00 | 33 | 1017.0 |
| 20260506192445 | 60 | 308 | 5.2 | 13.0 | 0.00 | 0.00 | 0.00 | 34 | 1017.0 |
| 20260506191945 | 60 | 347 | 6.1 | 13.9 | 0.00 | 0.00 | 0.00 | 33 | 1017.1 |
| 20260506191445 | 60 | 345 | 7.0 | 13.9 | 0.00 | 0.00 | 0.00 | 33 | 1017.2 |
| 20260506190944 | 60 | 311 | 6.1 | 13.9 | 0.00 | 0.00 | 0.00 | 34 | 1017.2 |
| 20260506190446 | 60 | 345 | 6.1 | 13.9 | 0.00 | 0.00 | 0.00 | 33 | 1017.1 |
| 20260506185946 | 60 | 330 | 6.1 | 13.9 | 0.00 | 0.00 | 0.00 | 34 | 1017.2 |
| 20260506185705 | 59 | 342 | 6.1 | 13.9 | 0.00 | 0.00 | 0.00 | 35 | 1017.3 |
| 20260506184944 | 59 | 358 | 6.1 | 13.0 | 0.00 | 0.00 | 0.00 | 34 | 1017.3 |
| 20260506184440 | 59 | 351 | 6.1 | 13.0 | 0.00 | 0.00 | 0.00 | 34 | 1017.5 |
| 20260506183940 | 58 | 350 | 6.1 | 15.6 | 0.00 | 0.00 | 0.00 | 35 | 1017.3 |
| 20260506183441 | 59 | 304 | 6.1 | 15.6 | 0.00 | 0.00 | 0.00 | 34 | 1017.6 |
| 20260506182941 | 58 | 317 | 6.1 | 15.6 | 0.00 | 0.00 | 0.00 | 35 | 1017.5 |
| 20260506182441 | 58 | 286 | 6.1 | 15.6 | 0.00 | 0.00 | 0.00 | 35 | 1017.6 |
| 20260506181941 | 57 | 353 | 7.0 | 12.2 | 0.00 | 0.00 | 0.00 | 35 | 1017.6 |
| 20260506181440 | 58 | 347 | 7.0 | 15.6 | 0.00 | 0.00 | 0.00 | 35 | 1017.6 |
| 20260506180941 | 58 | 340 | 7.0 | 15.6 | 0.00 | 0.00 | 0.00 | 35 | 1017.6 |
| 20260506180705 | 57 | 358 | 6.1 | 13.9 | 0.00 | 0.00 | 0.00 | 36 | 1017.6 |
| 20260506175937 | 57 | 353 | 5.2 | 13.9 | 0.00 | 0.00 | 0.00 | 36 | 1017.7 |
| 20260506175437 | 56 | 331 | 4.3 | 10.4 | 0.00 | 0.00 | 0.00 | 36 | 1017.7 |
| 20260506174936 | 56 | 316 | 5.2 | 12.2 | 0.00 | 0.00 | 0.00 | 36 | 1017.6 |
| 20260506174437 | 56 | 4 | 5.2 | 12.2 | 0.00 | 0.00 | 0.00 | 35 | 1017.6 |
| 20260506173937 | 56 | 312 | 5.2 | 12.2 | 0.00 | 0.00 | 0.00 | 35 | 1017.6 |
| 20260506173708 | 55 | 314 | 5.2 | 12.2 | 0.00 | 0.00 | 0.00 | 37 | 1017.6 |
| 20260506172937 | 55 | 351 | 6.1 | 13.9 | 0.00 | 0.00 | 0.00 | 35 | 1017.6 |
| 20260506172437 | 56 | 331 | 5.2 | 13.9 | 0.00 | 0.00 | 0.00 | 35 | 1017.6 |
| 20260506172203 | 55 | 357 | 5.2 | 13.0 | 0.00 | 0.00 | 0.00 | 35 | 1017.5 |
| 20260506171433 | 55 | 356 | 5.2 | 13.0 | 0.00 | 0.00 | 0.00 | 36 | 1017.5 |
| 20260506171147 | 54 | 318 | 4.3 | 10.4 | 0.00 | 0.00 | 0.00 | 36 | 1017.5 |
| 20260506171028 | 55 | 322 | 5.2 | 10.4 | 0.00 | 0.00 | 0.00 | 36 | 1017.5 |
| 20260506170154 | 54 | 301 | 3.5 | 10.4 | 0.00 | 0.00 | 0.00 | 36 | 1017.6 |
| 20260506165432 | 53 | 292 | 3.5 | 10.4 | 0.00 | 0.00 | 0.00 | 37 | 1017.6 |
| 20260506164932 | 53 | 291 | 4.3 | 9.6 | 0.00 | 0.00 | 0.00 | 37 | 1017.6 |
| 20260506164433 | 53 | 288 | 5.2 | 10.4 | 0.00 | 0.00 | 0.00 | 37 | 1017.6 |
| 20260506163934 | 52 | 287 | 5.2 | 10.4 | 0.00 | 0.00 | 0.00 | 38 | 1017.6 |
| 20260506163433 | 53 | 283 | 3.5 | 10.4 | 0.00 | 0.00 | 0.00 | 37 | 1017.5 |
| 20260506163156 | 52 | 274 | 3.5 | 7.8 | 0.00 | 0.00 | 0.00 | 38 | 1017.5 |
| 20260506162428 | 52 | 274 | 3.5 | 8.7 | 0.00 | 0.00 | 0.00 | 40 | 1017.5 |
| 20260506161928 | 51 | 274 | 4.3 | 8.7 | 0.00 | 0.00 | 0.00 | 40 | 1017.5 |
| 20260506161429 | 51 | 274 | 3.5 | 7.0 | 0.00 | 0.00 | 0.00 | 40 | 1017.5 |
| 20260506160929 | 50 | 273 | 3.5 | 7.8 | 0.00 | 0.00 | 0.00 | 40 | 1017.5 |
| 20260506160428 | 50 | 273 | 3.5 | 10.4 | 0.00 | 0.00 | 0.00 | 41 | 1017.5 |
| 20260506155928 | 50 | 271 | 3.5 | 10.4 | 0.00 | 0.00 | 0.00 | 41 | 1017.5 |
| 20260506155429 | 50 | 263 | 3.5 | 8.7 | 0.00 | 0.00 | 0.00 | 41 | 1017.3 |
| 20260506154929 | 50 | 262 | 4.3 | 8.7 | 0.00 | 0.00 | 0.00 | 40 | 1017.5 |
| 20260506154432 | 49 | 256 | 4.3 | 7.0 | 0.00 | 0.00 | 0.00 | 40 | 1017.3 |
| 20260506153926 | 49 | 253 | 4.3 | 7.0 | 0.00 | 0.00 | 0.00 | 41 | 1017.5 |
| 20260506153639 | 49 | 253 | 4.3 | 7.0 | 0.00 | 0.00 | 0.00 | 42 | 1017.2 |
| 20260506152913 | 49 | 249 | 4.3 | 7.8 | 0.00 | 0.00 | 0.00 | 43 | 1017.2 |
| 20260506152408 | 49 | 247 | 4.3 | 7.8 | 0.00 | 0.00 | 0.00 | 43 | 1017.2 |
| 20260506151903 | 48 | 242 | 3.5 | 7.8 | 0.00 | 0.00 | 0.00 | 45 | 1017.2 |
| 20260506151356 | 47 | 242 | 3.5 | 7.8 | 0.00 | 0.00 | 0.00 | 46 | 1017.2 |
| 20260506151120 | 47 | 241 | 4.3 | 7.8 | 0.00 | 0.00 | 0.00 | 47 | 1017.2 |
| 20260506150344 | 47 | 239 | 3.5 | 7.8 | 0.00 | 0.00 | 0.00 | 47 | 1017.1 |
| 20260506150058 | 46 | 237 | 3.5 | 7.8 | 0.00 | 0.00 | 0.00 | 48 | 1017.1 |
| 20260506145333 | 46 | 237 | 3.5 | 7.0 | 0.00 | 0.00 | 0.00 | 50 | 1017.1 |
| 20260506144826 | 45 | 233 | 4.3 | 7.8 | 0.00 | 0.00 | 0.00 | 51 | 1017.1 |
| 20260506144319 | 45 | 232 | 4.3 | 8.7 | 0.00 | 0.00 | 0.00 | 51 | 1017.1 |
| 20260506144034 | 45 | 230 | 4.3 | 7.8 | 0.00 | 0.00 | 0.00 | 51 | 1016.9 |
| 20260506143307 | 44 | 229 | 4.3 | 7.8 | 0.00 | 0.00 | 0.00 | 52 | 1016.9 |
| 20260506142801 | 44 | 222 | 5.2 | 9.6 | 0.00 | 0.00 | 0.00 | 52 | 1016.6 |
| 20260506142255 | 43 | 224 | 5.2 | 9.6 | 0.00 | 0.00 | 0.00 | 52 | 1016.6 |
| 20260506141749 | 43 | 224 | 5.2 | 8.7 | 0.00 | 0.00 | 0.00 | 53 | 1016.5 |
| 20260506141243 | 43 | 224 | 5.2 | 8.7 | 0.00 | 0.00 | 0.00 | 53 | 1016.5 |
| 20260506140737 | 43 | 224 | 6.1 | 9.6 | 0.00 | 0.00 | 0.00 | 54 | 1016.3 |
| 20260506140231 | 42 | 224 | 5.2 | 9.6 | 0.00 | 0.00 | 0.00 | 53 | 1016.3 |
| 20260506135725 | 42 | 225 | 5.2 | 7.8 | 0.00 | 0.00 | 0.00 | 54 | 1016.3 |
| 20260506135219 | 42 | 225 | 5.2 | 8.7 | 0.00 | 0.00 | 0.00 | 54 | 1016.1 |
| 20260506134933 | 41 | 225 | 5.2 | 8.7 | 0.00 | 0.00 | 0.00 | 55 | 1016.0 |
| 20260506134207 | 41 | 225 | 5.2 | 8.7 | 0.00 | 0.00 | 0.00 | 56 | 1016.0 |
| 20260506133700 | 40 | 225 | 4.3 | 7.8 | 0.00 | 0.00 | 0.00 | 57 | 1015.9 |
| 20260506133155 | 40 | 225 | 4.3 | 7.8 | 0.00 | 0.00 | 0.00 | 58 | 1015.8 |
| 20260506132649 | 39 | 225 | 4.3 | 7.8 | 0.00 | 0.00 | 0.00 | 59 | 1015.8 |
| 20260506132405 | 39 | 225 | 4.3 | 6.1 | 0.00 | 0.00 | 0.00 | 60 | 1015.8 |
| 20260506131636 | 38 | 225 | 4.3 | 6.1 | 0.00 | 0.00 | 0.00 | 61 | 1015.8 |
| 20260506131351 | 38 | 225 | 3.5 | 6.1 | 0.00 | 0.00 | 0.00 | 62 | 1015.7 |
| 20260506130626 | 37 | 225 | 4.3 | 7.8 | 0.00 | 0.00 | 0.00 | 62 | 1015.8 |
| 20260506130119 | 37 | 225 | 4.3 | 7.8 | 0.00 | 0.00 | 0.00 | 63 | 1015.5 |
| 20260506125612 | 36 | 225 | 4.3 | 6.1 | 0.00 | 0.00 | 0.00 | 63 | 1015.4 |
| 20260506125107 | 36 | 225 | 4.3 | 7.8 | 0.00 | 0.00 | 0.00 | 64 | 1015.4 |
| 20260506124601 | 36 | 225 | 4.3 | 7.8 | 0.00 | 0.00 | 0.00 | 64 | 1015.3 |
| 20260506124055 | 36 | 225 | 4.3 | 7.8 | 0.00 | 0.00 | 0.00 | 64 | 1015.3 |
| 20260506123549 | 35 | 225 | 5.2 | 8.7 | 0.00 | 0.00 | 0.00 | 65 | 1015.3 |
| 20260506123042 | 35 | 225 | 5.2 | 8.7 | 0.00 | 0.00 | 0.00 | 65 | 1015.2 |
| 20260506122801 | 35 | 225 | 4.3 | 7.8 | 0.00 | 0.00 | 0.00 | 66 | 1015.1 |
| 20260506122255 | 35 | 225 | 4.3 | 7.8 | 0.00 | 0.00 | 0.00 | 66 | 1015.1 |
| 20260506121525 | 35 | 226 | 4.3 | 6.1 | 0.00 | 0.00 | 0.00 | 65 | 1015.1 |
| 20260506121020 | 35 | 226 | 4.3 | 6.1 | 0.00 | 0.00 | 0.00 | 65 | 1015.1 |
| 20260506120954 | 35 | 226 | 3.5 | 6.1 | 0.00 | 0.00 | 0.00 | 65 | 1015.3 |
| 20260506120007 | 35 | 225 | 3.5 | 6.1 | 0.00 | 0.00 | 0.00 | 64 | 1015.2 |
| 20260506115501 | 36 | 226 | 4.3 | 6.1 | 0.00 | 0.00 | 0.00 | 64 | 1015.2 |
| 20260506114955 | 36 | 226 | 4.3 | 6.1 | 0.00 | 0.00 | 0.00 | 63 | 1015.2 |
| 20260506114449 | 36 | 226 | 5.2 | 7.8 | 0.00 | 0.00 | 0.00 | 63 | 1015.2 |
| 20260506113943 | 36 | 226 | 5.2 | 9.6 | 0.00 | 0.00 | 0.00 | 63 | 1015.2 |
| 20260506113437 | 37 | 226 | 6.1 | 11.3 | 0.00 | 0.00 | 0.00 | 63 | 1015.1 |
| 20260506112930 | 37 | 226 | 6.1 | 11.3 | 0.00 | 0.00 | 0.00 | 63 | 1015.1 |
| 20260506112425 | 36 | 231 | 5.2 | 8.7 | 0.00 | 0.00 | 0.00 | 63 | 1014.9 |
| 20260506112140 | 36 | 232 | 5.2 | 8.7 | 0.00 | 0.00 | 0.00 | 63 | 1014.9 |
| 20260506111413 | 36 | 233 | 4.3 | 7.8 | 0.00 | 0.00 | 0.00 | 63 | 1014.9 |
| 20260506110907 | 36 | 233 | 4.3 | 7.8 | 0.00 | 0.00 | 0.00 | 63 | 1014.9 |
| 20260506110401 | 36 | 234 | 4.3 | 6.1 | 0.00 | 0.00 | 0.00 | 63 | 1014.8 |
| 20260506105855 | 36 | 234 | 4.3 | 6.1 | 0.00 | 0.00 | 0.00 | 63 | 1014.8 |
| 20260506105616 | 36 | 234 | 4.3 | 6.1 | 0.00 | 0.00 | 0.00 | 63 | 1014.8 |
| 20260506104842 | 36 | 235 | 3.5 | 6.1 | 0.00 | 0.00 | 0.00 | 63 | 1014.7 |
| 20260506104557 | 36 | 235 | 3.5 | 5.2 | 0.00 | 0.00 | 0.00 | 63 | 1014.7 |
| 20260506103831 | 36 | 235 | 2.6 | 5.2 | 0.00 | 0.00 | 0.00 | 63 | 1014.7 |
| 20260506103548 | 37 | 235 | 3.5 | 7.0 | 0.00 | 0.00 | 0.00 | 62 | 1014.6 |
| 20260506102818 | 37 | 235 | 3.5 | 7.0 | 0.00 | 0.00 | 0.00 | 62 | 1014.5 |
| 20260506102313 | 37 | 235 | 3.5 | 5.2 | 0.00 | 0.00 | 0.00 | 62 | 1014.3 |
| 20260506102031 | 37 | 235 | 3.5 | 6.1 | 0.00 | 0.00 | 0.00 | 62 | 1014.3 |
| 20260506101301 | 37 | 235 | 4.3 | 7.0 | 0.00 | 0.00 | 0.00 | 62 | 1014.3 |
| 20260506101020 | 37 | 235 | 4.3 | 7.0 | 0.00 | 0.00 | 0.00 | 62 | 1014.3 |
| 20260506100249 | 37 | 235 | 4.3 | 6.1 | 0.00 | 0.00 | 0.00 | 62 | 1014.3 |
| 20260506095743 | 37 | 235 | 4.3 | 6.1 | 0.00 | 0.00 | 0.00 | 62 | 1014.3 |